sensor_id;sensor_type;location;lat;lon;timestamp;P1;durP1;ratioP1;P2;durP2;ratioP2
14040;SDS011;7095;51.388;6.196;2023-06-01T00:00:06;18.10;;;9.77;;
14040;SDS011;7095;51.388;6.196;2023-06-01T00:02:40;15.57;;;10.87;;
14040;SDS011;7095;51.388;6.196;2023-06-01T00:05:09;15.70;;;10.40;;
14040;SDS011;7095;51.388;6.196;2023-06-01T00:07:38;15.63;;;10.43;;
14040;SDS011;7095;51.388;6.196;2023-06-01T00:10:07;20.23;;;11.60;;
14040;SDS011;7095;51.388;6.196;2023-06-01T00:12:36;17.43;;;11.93;;
14040;SDS011;7095;51.388;6.196;2023-06-01T00:15:06;18.27;;;11.43;;
14040;SDS011;7095;51.388;6.196;2023-06-01T00:17:35;16.67;;;11.73;;
14040;SDS011;7095;51.388;6.196;2023-06-01T00:20:06;18.57;;;11.33;;
14040;SDS011;7095;51.388;6.196;2023-06-01T00:22:35;16.67;;;12.37;;
14040;SDS011;7095;51.388;6.196;2023-06-01T00:25:06;17.33;;;12.30;;
14040;SDS011;7095;51.388;6.196;2023-06-01T00:27:35;22.80;;;12.00;;
14040;SDS011;7095;51.388;6.196;2023-06-01T00:33:09;18.53;;;12.43;;
14040;SDS011;7095;51.388;6.196;2023-06-01T00:35:40;19.70;;;12.67;;
14040;SDS011;7095;51.388;6.196;2023-06-01T00:38:08;19.63;;;12.10;;
14040;SDS011;7095;51.388;6.196;2023-06-01T00:40:37;17.30;;;12.03;;
14040;SDS011;7095;51.388;6.196;2023-06-01T00:43:05;19.23;;;13.47;;
14040;SDS011;7095;51.388;6.196;2023-06-01T00:45:34;21.20;;;13.10;;
14040;SDS011;7095;51.388;6.196;2023-06-01T00:48:04;21.07;;;13.10;;
14040;SDS011;7095;51.388;6.196;2023-06-01T00:50:34;20.97;;;13.37;;
14040;SDS011;7095;51.388;6.196;2023-06-01T00:53:05;24.07;;;13.07;;
14040;SDS011;7095;51.388;6.196;2023-06-01T00:55:35;25.47;;;13.43;;
14040;SDS011;7095;51.388;6.196;2023-06-01T00:58:05;19.33;;;13.37;;
14040;SDS011;7095;51.388;6.196;2023-06-01T01:00:35;22.93;;;13.80;;
14040;SDS011;7095;51.388;6.196;2023-06-01T01:03:04;22.53;;;15.00;;
14040;SDS011;7095;51.388;6.196;2023-06-01T01:05:36;19.87;;;13.97;;
14040;SDS011;7095;51.388;6.196;2023-06-01T01:08:12;24.17;;;13.87;;
14040;SDS011;7095;51.388;6.196;2023-06-01T01:10:47;19.93;;;14.20;;
14040;SDS011;7095;51.388;6.196;2023-06-01T01:13:27;24.50;;;14.27;;
14040;SDS011;7095;51.388;6.196;2023-06-01T01:16:03;23.87;;;14.73;;
14040;SDS011;7095;51.388;6.196;2023-06-01T01:18:36;24.43;;;14.73;;
14040;SDS011;7095;51.388;6.196;2023-06-01T01:21:09;21.63;;;15.37;;
14040;SDS011;7095;51.388;6.196;2023-06-01T01:24:01;25.17;;;15.23;;
14040;SDS011;7095;51.388;6.196;2023-06-01T01:26:47;22.70;;;16.57;;
14040;SDS011;7095;51.388;6.196;2023-06-01T01:29:26;26.13;;;15.07;;
14040;SDS011;7095;51.388;6.196;2023-06-01T01:31:59;27.03;;;15.93;;
14040;SDS011;7095;51.388;6.196;2023-06-01T01:34:31;24.40;;;15.83;;
14040;SDS011;7095;51.388;6.196;2023-06-01T01:37:01;24.27;;;16.90;;
14040;SDS011;7095;51.388;6.196;2023-06-01T01:39:30;24.90;;;16.23;;
14040;SDS011;7095;51.388;6.196;2023-06-01T01:41:59;30.83;;;16.87;;
14040;SDS011;7095;51.388;6.196;2023-06-01T01:44:30;31.50;;;16.53;;
14040;SDS011;7095;51.388;6.196;2023-06-01T01:47:02;27.77;;;17.50;;
14040;SDS011;7095;51.388;6.196;2023-06-01T01:49:41;26.87;;;17.53;;
14040;SDS011;7095;51.388;6.196;2023-06-01T01:52:12;29.90;;;17.43;;
14040;SDS011;7095;51.388;6.196;2023-06-01T01:54:45;27.90;;;17.53;;
14040;SDS011;7095;51.388;6.196;2023-06-01T01:57:16;31.90;;;17.33;;
14040;SDS011;7095;51.388;6.196;2023-06-01T01:59:48;26.27;;;17.67;;
14040;SDS011;7095;51.388;6.196;2023-06-01T02:02:18;31.20;;;18.67;;
14040;SDS011;7095;51.388;6.196;2023-06-01T02:04:47;25.13;;;18.13;;
14040;SDS011;7095;51.388;6.196;2023-06-01T02:07:16;27.33;;;16.97;;
14040;SDS011;7095;51.388;6.196;2023-06-01T02:09:45;30.27;;;17.23;;
14040;SDS011;7095;51.388;6.196;2023-06-01T02:12:13;39.33;;;18.50;;
14040;SDS011;7095;51.388;6.196;2023-06-01T02:14:42;30.40;;;19.33;;
14040;SDS011;7095;51.388;6.196;2023-06-01T02:17:15;24.53;;;19.10;;
14040;SDS011;7095;51.388;6.196;2023-06-01T02:19:45;26.80;;;18.13;;
14040;SDS011;7095;51.388;6.196;2023-06-01T02:22:13;31.90;;;19.03;;
14040;SDS011;7095;51.388;6.196;2023-06-01T02:24:41;29.23;;;17.70;;
14040;SDS011;7095;51.388;6.196;2023-06-01T02:27:10;30.03;;;18.30;;
14040;SDS011;7095;51.388;6.196;2023-06-01T02:29:40;29.77;;;18.50;;
14040;SDS011;7095;51.388;6.196;2023-06-01T02:32:08;30.57;;;19.80;;
14040;SDS011;7095;51.388;6.196;2023-06-01T02:34:39;29.73;;;18.30;;
14040;SDS011;7095;51.388;6.196;2023-06-01T02:37:08;30.40;;;19.53;;
14040;SDS011;7095;51.388;6.196;2023-06-01T02:39:36;36.10;;;20.47;;
14040;SDS011;7095;51.388;6.196;2023-06-01T02:42:05;38.43;;;20.53;;
14040;SDS011;7095;51.388;6.196;2023-06-01T02:44:34;30.20;;;18.90;;
14040;SDS011;7095;51.388;6.196;2023-06-01T02:47:03;33.03;;;19.43;;
14040;SDS011;7095;51.388;6.196;2023-06-01T02:49:32;32.73;;;18.83;;
14040;SDS011;7095;51.388;6.196;2023-06-01T02:52:02;30.60;;;18.67;;
14040;SDS011;7095;51.388;6.196;2023-06-01T02:54:31;29.57;;;18.50;;
14040;SDS011;7095;51.388;6.196;2023-06-01T02:57:08;28.83;;;19.30;;
14040;SDS011;7095;51.388;6.196;2023-06-01T02:59:43;26.77;;;17.97;;
14040;SDS011;7095;51.388;6.196;2023-06-01T03:02:12;27.07;;;17.37;;
14040;SDS011;7095;51.388;6.196;2023-06-01T03:04:40;28.30;;;18.57;;
14040;SDS011;7095;51.388;6.196;2023-06-01T03:07:12;29.83;;;18.73;;
14040;SDS011;7095;51.388;6.196;2023-06-01T03:09:46;29.23;;;17.73;;
14040;SDS011;7095;51.388;6.196;2023-06-01T03:12:35;24.27;;;17.00;;
14040;SDS011;7095;51.388;6.196;2023-06-01T03:15:04;30.00;;;18.33;;
14040;SDS011;7095;51.388;6.196;2023-06-01T03:17:34;30.90;;;17.67;;
14040;SDS011;7095;51.388;6.196;2023-06-01T03:20:03;22.53;;;15.60;;
14040;SDS011;7095;51.388;6.196;2023-06-01T03:26:12;27.57;;;16.70;;
14040;SDS011;7095;51.388;6.196;2023-06-01T03:28:41;21.40;;;15.07;;
14040;SDS011;7095;51.388;6.196;2023-06-01T03:31:09;22.17;;;15.73;;
14040;SDS011;7095;51.388;6.196;2023-06-01T03:33:39;24.23;;;14.57;;
14040;SDS011;7095;51.388;6.196;2023-06-01T03:36:07;19.90;;;15.13;;
14040;SDS011;7095;51.388;6.196;2023-06-01T03:38:36;20.23;;;15.10;;
14040;SDS011;7095;51.388;6.196;2023-06-01T03:41:04;23.07;;;14.33;;
14040;SDS011;7095;51.388;6.196;2023-06-01T03:43:35;21.13;;;14.67;;
14040;SDS011;7095;51.388;6.196;2023-06-01T03:46:04;18.13;;;13.50;;
14040;SDS011;7095;51.388;6.196;2023-06-01T03:48:33;24.23;;;13.83;;
14040;SDS011;7095;51.388;6.196;2023-06-01T03:51:02;23.50;;;14.20;;
14040;SDS011;7095;51.388;6.196;2023-06-01T03:53:31;24.27;;;15.10;;
14040;SDS011;7095;51.388;6.196;2023-06-01T03:56:00;25.30;;;14.30;;
14040;SDS011;7095;51.388;6.196;2023-06-01T03:58:31;22.03;;;14.20;;
14040;SDS011;7095;51.388;6.196;2023-06-01T04:01:02;20.87;;;14.10;;
14040;SDS011;7095;51.388;6.196;2023-06-01T04:03:39;17.70;;;13.47;;
14040;SDS011;7095;51.388;6.196;2023-06-01T04:06:10;23.30;;;15.17;;
14040;SDS011;7095;51.388;6.196;2023-06-01T04:08:43;20.00;;;13.97;;
14040;SDS011;7095;51.388;6.196;2023-06-01T04:11:17;20.10;;;14.37;;
14040;SDS011;7095;51.388;6.196;2023-06-01T04:13:46;17.63;;;12.90;;
14040;SDS011;7095;51.388;6.196;2023-06-01T04:16:16;17.20;;;13.33;;
14040;SDS011;7095;51.388;6.196;2023-06-01T04:18:46;18.63;;;13.67;;
14040;SDS011;7095;51.388;6.196;2023-06-01T04:21:18;18.87;;;14.33;;
14040;SDS011;7095;51.388;6.196;2023-06-01T04:23:49;20.90;;;13.87;;
14040;SDS011;7095;51.388;6.196;2023-06-01T04:26:20;25.07;;;14.73;;
14040;SDS011;7095;51.388;6.196;2023-06-01T04:28:49;22.20;;;14.30;;
14040;SDS011;7095;51.388;6.196;2023-06-01T04:31:19;21.37;;;13.73;;
14040;SDS011;7095;51.388;6.196;2023-06-01T04:33:49;19.10;;;13.67;;
14040;SDS011;7095;51.388;6.196;2023-06-01T04:36:24;20.90;;;14.27;;
14040;SDS011;7095;51.388;6.196;2023-06-01T04:38:58;18.00;;;13.17;;
14040;SDS011;7095;51.388;6.196;2023-06-01T04:41:32;24.67;;;14.80;;
14040;SDS011;7095;51.388;6.196;2023-06-01T04:44:02;20.97;;;12.83;;
14040;SDS011;7095;51.388;6.196;2023-06-01T04:46:35;20.07;;;13.10;;
14040;SDS011;7095;51.388;6.196;2023-06-01T04:49:07;21.87;;;12.40;;
14040;SDS011;7095;51.388;6.196;2023-06-01T04:51:39;19.13;;;13.67;;
14040;SDS011;7095;51.388;6.196;2023-06-01T04:54:08;21.87;;;13.30;;
14040;SDS011;7095;51.388;6.196;2023-06-01T04:56:36;21.47;;;12.80;;
14040;SDS011;7095;51.388;6.196;2023-06-01T04:59:05;20.97;;;13.13;;
14040;SDS011;7095;51.388;6.196;2023-06-01T05:01:34;17.33;;;12.47;;
14040;SDS011;7095;51.388;6.196;2023-06-01T05:04:06;16.50;;;12.60;;
14040;SDS011;7095;51.388;6.196;2023-06-01T05:06:35;20.30;;;12.27;;
14040;SDS011;7095;51.388;6.196;2023-06-01T05:09:04;17.63;;;12.40;;
14040;SDS011;7095;51.388;6.196;2023-06-01T05:11:33;16.20;;;12.37;;
14040;SDS011;7095;51.388;6.196;2023-06-01T05:14:02;20.77;;;12.80;;
14040;SDS011;7095;51.388;6.196;2023-06-01T05:16:32;19.37;;;13.07;;
14040;SDS011;7095;51.388;6.196;2023-06-01T05:19:04;20.43;;;13.73;;
14040;SDS011;7095;51.388;6.196;2023-06-01T05:21:34;22.63;;;12.97;;
14040;SDS011;7095;51.388;6.196;2023-06-01T05:24:03;19.20;;;12.93;;
14040;SDS011;7095;51.388;6.196;2023-06-01T05:26:32;21.00;;;13.83;;
14040;SDS011;7095;51.388;6.196;2023-06-01T05:29:01;16.13;;;12.30;;
14040;SDS011;7095;51.388;6.196;2023-06-01T05:31:30;16.23;;;13.00;;
14040;SDS011;7095;51.388;6.196;2023-06-01T05:34:00;17.90;;;12.20;;
14040;SDS011;7095;51.388;6.196;2023-06-01T05:36:31;22.83;;;11.73;;
14040;SDS011;7095;51.388;6.196;2023-06-01T05:39:01;18.13;;;12.47;;
14040;SDS011;7095;51.388;6.196;2023-06-01T05:41:30;17.10;;;12.17;;
14040;SDS011;7095;51.388;6.196;2023-06-01T05:44:00;20.17;;;12.20;;
14040;SDS011;7095;51.388;6.196;2023-06-01T05:46:28;21.33;;;12.30;;
14040;SDS011;7095;51.388;6.196;2023-06-01T05:48:57;21.10;;;12.87;;
14040;SDS011;7095;51.388;6.196;2023-06-01T05:51:26;18.93;;;12.70;;
14040;SDS011;7095;51.388;6.196;2023-06-01T05:53:57;17.93;;;13.53;;
14040;SDS011;7095;51.388;6.196;2023-06-01T05:56:32;16.37;;;13.70;;
14040;SDS011;7095;51.388;6.196;2023-06-01T05:59:06;21.53;;;14.97;;
14040;SDS011;7095;51.388;6.196;2023-06-01T06:01:36;25.97;;;15.57;;
14040;SDS011;7095;51.388;6.196;2023-06-01T06:04:04;32.87;;;16.70;;
14040;SDS011;7095;51.388;6.196;2023-06-01T06:06:33;19.30;;;14.73;;
14040;SDS011;7095;51.388;6.196;2023-06-01T06:09:04;22.13;;;14.30;;
14040;SDS011;7095;51.388;6.196;2023-06-01T06:11:32;18.03;;;13.70;;
14040;SDS011;7095;51.388;6.196;2023-06-01T06:14:01;23.57;;;14.13;;
14040;SDS011;7095;51.388;6.196;2023-06-01T06:16:30;19.17;;;14.00;;
14040;SDS011;7095;51.388;6.196;2023-06-01T06:18:58;18.23;;;14.27;;
14040;SDS011;7095;51.388;6.196;2023-06-01T06:21:27;24.37;;;14.37;;
14040;SDS011;7095;51.388;6.196;2023-06-01T06:23:57;22.13;;;14.30;;
14040;SDS011;7095;51.388;6.196;2023-06-01T06:26:28;16.93;;;12.20;;
14040;SDS011;7095;51.388;6.196;2023-06-01T06:28:56;17.07;;;13.03;;
14040;SDS011;7095;51.388;6.196;2023-06-01T06:31:25;21.50;;;13.70;;
14040;SDS011;7095;51.388;6.196;2023-06-01T06:33:54;19.33;;;13.30;;
14040;SDS011;7095;51.388;6.196;2023-06-01T06:36:23;18.80;;;13.47;;
14040;SDS011;7095;51.388;6.196;2023-06-01T06:38:51;18.13;;;13.00;;
14040;SDS011;7095;51.388;6.196;2023-06-01T06:41:20;17.93;;;13.27;;
14040;SDS011;7095;51.388;6.196;2023-06-01T06:43:51;20.23;;;13.00;;
14040;SDS011;7095;51.388;6.196;2023-06-01T06:46:20;20.77;;;14.17;;
14040;SDS011;7095;51.388;6.196;2023-06-01T06:48:49;18.87;;;14.17;;
14040;SDS011;7095;51.388;6.196;2023-06-01T06:51:17;24.47;;;13.43;;
14040;SDS011;7095;51.388;6.196;2023-06-01T06:53:46;17.07;;;13.57;;
14040;SDS011;7095;51.388;6.196;2023-06-01T06:56:15;18.23;;;13.23;;
14040;SDS011;7095;51.388;6.196;2023-06-01T06:58:44;22.77;;;14.13;;
14040;SDS011;7095;51.388;6.196;2023-06-01T07:01:27;20.20;;;13.13;;
14040;SDS011;7095;51.388;6.196;2023-06-01T07:03:56;20.13;;;13.70;;
14040;SDS011;7095;51.388;6.196;2023-06-01T07:06:25;19.13;;;13.90;;
14040;SDS011;7095;51.388;6.196;2023-06-01T07:08:53;21.77;;;14.37;;
14040;SDS011;7095;51.388;6.196;2023-06-01T07:11:22;26.63;;;13.70;;
14040;SDS011;7095;51.388;6.196;2023-06-01T07:13:51;20.70;;;14.57;;
14040;SDS011;7095;51.388;6.196;2023-06-01T07:16:20;19.73;;;13.47;;
14040;SDS011;7095;51.388;6.196;2023-06-01T07:18:50;21.37;;;14.67;;
14040;SDS011;7095;51.388;6.196;2023-06-01T07:21:19;20.17;;;13.27;;
14040;SDS011;7095;51.388;6.196;2023-06-01T07:23:48;20.93;;;13.00;;
14040;SDS011;7095;51.388;6.196;2023-06-01T07:26:16;24.40;;;13.47;;
14040;SDS011;7095;51.388;6.196;2023-06-01T07:28:45;20.90;;;13.27;;
14040;SDS011;7095;51.388;6.196;2023-06-01T07:31:16;21.80;;;14.40;;
14040;SDS011;7095;51.388;6.196;2023-06-01T07:33:45;21.03;;;15.17;;
14040;SDS011;7095;51.388;6.196;2023-06-01T07:36:17;20.80;;;15.07;;
14040;SDS011;7095;51.388;6.196;2023-06-01T07:38:46;21.67;;;15.53;;
14040;SDS011;7095;51.388;6.196;2023-06-01T07:41:15;25.90;;;16.37;;
14040;SDS011;7095;51.388;6.196;2023-06-01T07:43:44;20.27;;;15.33;;
14040;SDS011;7095;51.388;6.196;2023-06-01T07:46:13;20.33;;;14.87;;
14040;SDS011;7095;51.388;6.196;2023-06-01T07:48:42;25.23;;;15.00;;
14040;SDS011;7095;51.388;6.196;2023-06-01T07:51:10;25.80;;;14.47;;
14040;SDS011;7095;51.388;6.196;2023-06-01T07:53:40;18.90;;;13.87;;
14040;SDS011;7095;51.388;6.196;2023-06-01T07:56:10;21.17;;;14.40;;
14040;SDS011;7095;51.388;6.196;2023-06-01T07:58:39;22.87;;;13.90;;
14040;SDS011;7095;51.388;6.196;2023-06-01T08:01:08;21.20;;;14.10;;
14040;SDS011;7095;51.388;6.196;2023-06-01T08:03:41;25.40;;;14.60;;
14040;SDS011;7095;51.388;6.196;2023-06-01T08:06:11;19.60;;;14.43;;
14040;SDS011;7095;51.388;6.196;2023-06-01T08:08:42;19.00;;;13.60;;
14040;SDS011;7095;51.388;6.196;2023-06-01T08:11:12;19.80;;;14.37;;
14040;SDS011;7095;51.388;6.196;2023-06-01T08:13:41;23.10;;;12.50;;
14040;SDS011;7095;51.388;6.196;2023-06-01T08:16:12;18.93;;;13.77;;
14040;SDS011;7095;51.388;6.196;2023-06-01T08:18:41;21.33;;;14.97;;
14040;SDS011;7095;51.388;6.196;2023-06-01T08:21:11;16.80;;;13.27;;
14040;SDS011;7095;51.388;6.196;2023-06-01T08:23:41;21.30;;;14.07;;
14040;SDS011;7095;51.388;6.196;2023-06-01T08:26:10;19.37;;;12.23;;
14040;SDS011;7095;51.388;6.196;2023-06-01T08:28:39;22.43;;;13.33;;
14040;SDS011;7095;51.388;6.196;2023-06-01T08:31:07;21.90;;;14.37;;
14040;SDS011;7095;51.388;6.196;2023-06-01T08:33:36;21.73;;;12.87;;
14040;SDS011;7095;51.388;6.196;2023-06-01T08:36:06;20.80;;;12.40;;
14040;SDS011;7095;51.388;6.196;2023-06-01T08:38:35;20.30;;;13.03;;
14040;SDS011;7095;51.388;6.196;2023-06-01T08:41:07;21.93;;;13.47;;
14040;SDS011;7095;51.388;6.196;2023-06-01T08:43:43;21.73;;;13.37;;
14040;SDS011;7095;51.388;6.196;2023-06-01T08:46:16;22.23;;;12.90;;
14040;SDS011;7095;51.388;6.196;2023-06-01T08:48:48;20.17;;;12.13;;
14040;SDS011;7095;51.388;6.196;2023-06-01T08:51:24;21.60;;;13.90;;
14040;SDS011;7095;51.388;6.196;2023-06-01T08:53:54;25.37;;;12.87;;
14040;SDS011;7095;51.388;6.196;2023-06-01T08:56:28;21.47;;;13.00;;
14040;SDS011;7095;51.388;6.196;2023-06-01T08:58:56;22.10;;;12.20;;
14040;SDS011;7095;51.388;6.196;2023-06-01T09:01:25;21.23;;;13.20;;
14040;SDS011;7095;51.388;6.196;2023-06-01T09:03:54;21.17;;;13.57;;
14040;SDS011;7095;51.388;6.196;2023-06-01T09:06:23;20.83;;;13.00;;
14040;SDS011;7095;51.388;6.196;2023-06-01T09:08:53;18.30;;;13.07;;
14040;SDS011;7095;51.388;6.196;2023-06-01T09:11:22;20.30;;;12.90;;
14040;SDS011;7095;51.388;6.196;2023-06-01T09:13:52;19.50;;;13.50;;
14040;SDS011;7095;51.388;6.196;2023-06-01T09:16:21;21.00;;;11.97;;
14040;SDS011;7095;51.388;6.196;2023-06-01T09:18:57;18.67;;;12.10;;
14040;SDS011;7095;51.388;6.196;2023-06-01T09:21:25;16.30;;;12.30;;
14040;SDS011;7095;51.388;6.196;2023-06-01T09:23:54;18.23;;;12.40;;
14040;SDS011;7095;51.388;6.196;2023-06-01T09:26:25;21.77;;;12.00;;
14040;SDS011;7095;51.388;6.196;2023-06-01T09:28:56;23.43;;;12.20;;
14040;SDS011;7095;51.388;6.196;2023-06-01T09:31:36;17.67;;;10.43;;
14040;SDS011;7095;51.388;6.196;2023-06-01T09:34:09;20.70;;;12.13;;
14040;SDS011;7095;51.388;6.196;2023-06-01T09:36:39;19.33;;;11.70;;
14040;SDS011;7095;51.388;6.196;2023-06-01T09:39:08;17.40;;;11.07;;
14040;SDS011;7095;51.388;6.196;2023-06-01T09:41:49;18.33;;;11.93;;
14040;SDS011;7095;51.388;6.196;2023-06-01T09:44:24;21.13;;;11.53;;
14040;SDS011;7095;51.388;6.196;2023-06-01T09:46:55;19.63;;;12.17;;
14040;SDS011;7095;51.388;6.196;2023-06-01T09:49:27;19.23;;;11.07;;
14040;SDS011;7095;51.388;6.196;2023-06-01T09:54:44;20.60;;;11.47;;
14040;SDS011;7095;51.388;6.196;2023-06-01T09:57:19;21.63;;;12.30;;
14040;SDS011;7095;51.388;6.196;2023-06-01T09:59:50;20.37;;;11.07;;
14040;SDS011;7095;51.388;6.196;2023-06-01T10:02:19;20.60;;;11.13;;
14040;SDS011;7095;51.388;6.196;2023-06-01T10:04:50;19.30;;;10.23;;
14040;SDS011;7095;51.388;6.196;2023-06-01T10:07:21;20.73;;;11.13;;
14040;SDS011;7095;51.388;6.196;2023-06-01T10:09:52;17.80;;;10.90;;
14040;SDS011;7095;51.388;6.196;2023-06-01T10:12:24;24.23;;;12.27;;
14040;SDS011;7095;51.388;6.196;2023-06-01T10:14:56;18.37;;;11.17;;
14040;SDS011;7095;51.388;6.196;2023-06-01T10:17:25;18.23;;;11.57;;
14040;SDS011;7095;51.388;6.196;2023-06-01T10:19:54;19.97;;;11.93;;
14040;SDS011;7095;51.388;6.196;2023-06-01T10:22:25;19.57;;;11.30;;
14040;SDS011;7095;51.388;6.196;2023-06-01T10:24:54;19.87;;;10.53;;
14040;SDS011;7095;51.388;6.196;2023-06-01T10:27:29;20.30;;;10.83;;
14040;SDS011;7095;51.388;6.196;2023-06-01T10:30:06;20.37;;;9.80;;
14040;SDS011;7095;51.388;6.196;2023-06-01T10:32:42;19.53;;;11.40;;
14040;SDS011;7095;51.388;6.196;2023-06-01T10:38:30;14.80;;;9.60;;
14040;SDS011;7095;51.388;6.196;2023-06-01T10:43:59;18.60;;;10.23;;
14040;SDS011;7095;51.388;6.196;2023-06-01T10:46:39;13.53;;;9.43;;
14040;SDS011;7095;51.388;6.196;2023-06-01T10:49:11;19.97;;;11.10;;
14040;SDS011;7095;51.388;6.196;2023-06-01T10:51:40;19.20;;;11.10;;
14040;SDS011;7095;51.388;6.196;2023-06-01T10:54:25;16.43;;;10.33;;
14040;SDS011;7095;51.388;6.196;2023-06-01T11:00:11;16.47;;;10.03;;
14040;SDS011;7095;51.388;6.196;2023-06-01T11:02:47;17.67;;;11.07;;
14040;SDS011;7095;51.388;6.196;2023-06-01T11:14:29;17.23;;;9.53;;
14040;SDS011;7095;51.388;6.196;2023-06-01T11:19:59;17.80;;;9.63;;
14040;SDS011;7095;51.388;6.196;2023-06-01T11:22:34;16.70;;;10.47;;
14040;SDS011;7095;51.388;6.196;2023-06-01T11:25:04;15.30;;;9.63;;
14040;SDS011;7095;51.388;6.196;2023-06-01T11:27:35;15.37;;;8.60;;
14040;SDS011;7095;51.388;6.196;2023-06-01T11:30:05;13.10;;;8.27;;
14040;SDS011;7095;51.388;6.196;2023-06-01T11:32:36;15.13;;;9.93;;
14040;SDS011;7095;51.388;6.196;2023-06-01T11:35:19;18.50;;;9.73;;
14040;SDS011;7095;51.388;6.196;2023-06-01T11:37:53;15.13;;;8.93;;
14040;SDS011;7095;51.388;6.196;2023-06-01T11:40:23;11.57;;;9.27;;
14040;SDS011;7095;51.388;6.196;2023-06-01T11:42:58;13.50;;;9.47;;
14040;SDS011;7095;51.388;6.196;2023-06-01T11:45:27;12.27;;;8.13;;
14040;SDS011;7095;51.388;6.196;2023-06-01T11:48:09;12.63;;;8.60;;
14040;SDS011;7095;51.388;6.196;2023-06-01T11:50:45;15.18;;;9.10;;
14040;SDS011;7095;51.388;6.196;2023-06-01T11:53:18;12.38;;;9.43;;
14040;SDS011;7095;51.388;6.196;2023-06-01T11:55:48;15.73;;;9.43;;
14040;SDS011;7095;51.388;6.196;2023-06-01T11:58:21;13.63;;;8.25;;
14040;SDS011;7095;51.388;6.196;2023-06-01T12:00:50;14.63;;;8.60;;
14040;SDS011;7095;51.388;6.196;2023-06-01T12:03:20;13.05;;;8.65;;
14040;SDS011;7095;51.388;6.196;2023-06-01T12:05:52;17.08;;;9.52;;
14040;SDS011;7095;51.388;6.196;2023-06-01T12:08:21;14.32;;;8.93;;
14040;SDS011;7095;51.388;6.196;2023-06-01T12:10:51;15.02;;;8.88;;
14040;SDS011;7095;51.388;6.196;2023-06-01T12:13:21;14.98;;;9.73;;
14040;SDS011;7095;51.388;6.196;2023-06-01T12:15:51;11.85;;;8.65;;
14040;SDS011;7095;51.388;6.196;2023-06-01T12:18:28;14.57;;;8.98;;
14040;SDS011;7095;51.388;6.196;2023-06-01T12:21:07;10.98;;;9.23;;
14040;SDS011;7095;51.388;6.196;2023-06-01T12:23:37;16.77;;;8.80;;
14040;SDS011;7095;51.388;6.196;2023-06-01T12:26:07;9.98;;;8.00;;
14040;SDS011;7095;51.388;6.196;2023-06-01T12:31:27;15.75;;;7.88;;
14040;SDS011;7095;51.388;6.196;2023-06-01T12:33:58;13.57;;;8.90;;
14040;SDS011;7095;51.388;6.196;2023-06-01T12:36:29;14.07;;;8.35;;
14040;SDS011;7095;51.388;6.196;2023-06-01T12:38:59;12.07;;;8.02;;
14040;SDS011;7095;51.388;6.196;2023-06-01T12:41:29;12.60;;;8.63;;
14040;SDS011;7095;51.388;6.196;2023-06-01T12:43:58;11.82;;;7.88;;
14040;SDS011;7095;51.388;6.196;2023-06-01T12:46:27;13.10;;;8.30;;
14040;SDS011;7095;51.388;6.196;2023-06-01T12:49:10;10.57;;;6.78;;
14040;SDS011;7095;51.388;6.196;2023-06-01T12:51:41;11.13;;;7.32;;
14040;SDS011;7095;51.388;6.196;2023-06-01T12:54:10;11.43;;;7.45;;
14040;SDS011;7095;51.388;6.196;2023-06-01T12:56:39;12.50;;;7.70;;
14040;SDS011;7095;51.388;6.196;2023-06-01T12:59:08;10.93;;;7.65;;
14040;SDS011;7095;51.388;6.196;2023-06-01T13:01:36;10.75;;;6.68;;
14040;SDS011;7095;51.388;6.196;2023-06-01T13:04:06;11.55;;;6.75;;
14040;SDS011;7095;51.388;6.196;2023-06-01T13:06:35;9.38;;;6.97;;
14040;SDS011;7095;51.388;6.196;2023-06-01T13:09:06;13.48;;;7.93;;
14040;SDS011;7095;51.388;6.196;2023-06-01T13:11:35;15.23;;;7.68;;
14040;SDS011;7095;51.388;6.196;2023-06-01T13:14:03;11.90;;;7.75;;
14040;SDS011;7095;51.388;6.196;2023-06-01T13:16:32;10.88;;;6.90;;
14040;SDS011;7095;51.388;6.196;2023-06-01T13:19:01;10.60;;;6.22;;
14040;SDS011;7095;51.388;6.196;2023-06-01T13:21:30;13.80;;;7.70;;
14040;SDS011;7095;51.388;6.196;2023-06-01T13:24:00;9.00;;;7.00;;
14040;SDS011;7095;51.388;6.196;2023-06-01T13:26:31;12.40;;;7.40;;
14040;SDS011;7095;51.388;6.196;2023-06-01T13:29:00;11.63;;;7.00;;
14040;SDS011;7095;51.388;6.196;2023-06-01T13:31:29;11.80;;;6.40;;
14040;SDS011;7095;51.388;6.196;2023-06-01T13:33:59;9.63;;;6.90;;
14040;SDS011;7095;51.388;6.196;2023-06-01T13:36:28;12.18;;;7.55;;
14040;SDS011;7095;51.388;6.196;2023-06-01T13:38:57;16.20;;;7.05;;
14040;SDS011;7095;51.388;6.196;2023-06-01T13:41:25;10.00;;;6.07;;
14040;SDS011;7095;51.388;6.196;2023-06-01T13:43:57;10.75;;;6.95;;
14040;SDS011;7095;51.388;6.196;2023-06-01T13:46:25;10.63;;;6.80;;
14040;SDS011;7095;51.388;6.196;2023-06-01T13:48:54;12.88;;;7.32;;
14040;SDS011;7095;51.388;6.196;2023-06-01T13:51:22;11.07;;;6.43;;
14040;SDS011;7095;51.388;6.196;2023-06-01T13:53:51;9.38;;;6.53;;
14040;SDS011;7095;51.388;6.196;2023-06-01T13:56:20;12.27;;;7.03;;
14040;SDS011;7095;51.388;6.196;2023-06-01T13:58:50;9.32;;;6.82;;
14040;SDS011;7095;51.388;6.196;2023-06-01T14:01:20;10.68;;;7.05;;
14040;SDS011;7095;51.388;6.196;2023-06-01T14:03:49;12.00;;;6.70;;
14040;SDS011;7095;51.388;6.196;2023-06-01T14:06:18;21.48;;;7.57;;
14040;SDS011;7095;51.388;6.196;2023-06-01T14:08:47;10.93;;;6.95;;
14040;SDS011;7095;51.388;6.196;2023-06-01T14:11:16;11.93;;;6.45;;
14040;SDS011;7095;51.388;6.196;2023-06-01T14:13:45;13.18;;;6.68;;
14040;SDS011;7095;51.388;6.196;2023-06-01T14:16:14;10.30;;;7.05;;
14040;SDS011;7095;51.388;6.196;2023-06-01T14:18:44;9.23;;;6.18;;
14040;SDS011;7095;51.388;6.196;2023-06-01T14:21:12;12.57;;;6.43;;
14040;SDS011;7095;51.388;6.196;2023-06-01T14:23:41;10.70;;;6.57;;
14040;SDS011;7095;51.388;6.196;2023-06-01T14:26:11;11.88;;;6.63;;
14040;SDS011;7095;51.388;6.196;2023-06-01T14:28:40;12.57;;;6.55;;
14040;SDS011;7095;51.388;6.196;2023-06-01T14:31:09;11.48;;;6.70;;
14040;SDS011;7095;51.388;6.196;2023-06-01T14:33:38;8.25;;;6.05;;
14040;SDS011;7095;51.388;6.196;2023-06-01T14:36:08;10.68;;;6.05;;
14040;SDS011;7095;51.388;6.196;2023-06-01T14:38:37;10.82;;;5.95;;
14040;SDS011;7095;51.388;6.196;2023-06-01T14:41:05;16.00;;;6.20;;
14040;SDS011;7095;51.388;6.196;2023-06-01T14:43:35;10.98;;;6.72;;
14040;SDS011;7095;51.388;6.196;2023-06-01T14:46:05;10.18;;;6.13;;
14040;SDS011;7095;51.388;6.196;2023-06-01T14:48:34;13.70;;;5.40;;
14040;SDS011;7095;51.388;6.196;2023-06-01T14:51:03;12.85;;;5.70;;
14040;SDS011;7095;51.388;6.196;2023-06-01T14:53:33;9.15;;;6.00;;
14040;SDS011;7095;51.388;6.196;2023-06-01T14:56:01;12.05;;;6.78;;
14040;SDS011;7095;51.388;6.196;2023-06-01T14:58:31;10.00;;;6.53;;
14040;SDS011;7095;51.388;6.196;2023-06-01T15:00:59;12.70;;;6.22;;
14040;SDS011;7095;51.388;6.196;2023-06-01T15:03:28;11.43;;;5.90;;
14040;SDS011;7095;51.388;6.196;2023-06-01T15:05:57;10.47;;;5.90;;
14040;SDS011;7095;51.388;6.196;2023-06-01T15:08:26;8.68;;;5.70;;
14040;SDS011;7095;51.388;6.196;2023-06-01T15:10:57;17.85;;;7.15;;
14040;SDS011;7095;51.388;6.196;2023-06-01T15:13:26;14.80;;;7.67;;
14040;SDS011;7095;51.388;6.196;2023-06-01T15:15:55;11.93;;;6.97;;
14040;SDS011;7095;51.388;6.196;2023-06-01T15:18:25;13.00;;;6.30;;
14040;SDS011;7095;51.388;6.196;2023-06-01T15:20:54;12.37;;;6.67;;
14040;SDS011;7095;51.388;6.196;2023-06-01T15:23:24;10.23;;;6.10;;
14040;SDS011;7095;51.388;6.196;2023-06-01T15:25:53;9.00;;;5.97;;
14040;SDS011;7095;51.388;6.196;2023-06-01T15:28:24;13.23;;;6.07;;
14040;SDS011;7095;51.388;6.196;2023-06-01T15:30:52;15.70;;;7.13;;